TAP1928 LPPT-LPPR
Flight info
| Callsign | TAP1928 |
|---|---|
| Flight time | 0h 34m |
| Altitude | 22000 |
| Route | IXIDA DCT ABLEG |
| Aircraft | A320/M-SDE3FGHIRWY/LB1 |
Departure
| Time | 2026-05-05 02:28 |
|---|---|
| Airport | Lisbon Humberto Delgado Airport (LPPT) |
Arrival
| Time | 2026-05-05 03:03 |
|---|---|
| Airport | Francisco de Sá Carneiro Airport (LPPR) |
| Time | Latitude | Longitude | Altitude | Speed | Heading |
|---|---|---|---|---|---|
| 2026-05-05 02:10 | 38.77297 | -9.13162 | 334 ft | 0 kts | 78° |
| 2026-05-05 02:22 | 38.77293 | -9.13187 | 335 ft | 4 kts | 78° |
| 2026-05-05 02:22 | 38.77286 | -9.13219 | 335 ft | 4 kts | 58° |
| 2026-05-05 02:22 | 38.77268 | -9.13240 | 336 ft | 4 kts | 8° |
| 2026-05-05 02:23 | 38.77253 | -9.13239 | 337 ft | 1 kts | 348° |
| 2026-05-05 02:23 | 38.77251 | -9.13239 | 338 ft | 0 kts | 348° |
| 2026-05-05 02:25 | 38.77352 | -9.13263 | 333 ft | 25 kts | 352° |
| 2026-05-05 02:25 | 38.77490 | -9.13294 | 336 ft | 21 kts | 344° |
| 2026-05-05 02:25 | 38.77623 | -9.13320 | 338 ft | 17 kts | 359° |
| 2026-05-05 02:25 | 38.77745 | -9.13342 | 347 ft | 17 kts | 348° |
| 2026-05-05 02:26 | 38.77853 | -9.13371 | 348 ft | 15 kts | 348° |
| 2026-05-05 02:26 | 38.77953 | -9.13398 | 353 ft | 15 kts | 348° |
| 2026-05-05 02:26 | 38.78070 | -9.13397 | 363 ft | 17 kts | 22° |
| 2026-05-05 02:26 | 38.78186 | -9.13334 | 358 ft | 19 kts | 23° |
| 2026-05-05 02:27 | 38.78315 | -9.13266 | 365 ft | 21 kts | 24° |
| 2026-05-05 02:27 | 38.78449 | -9.13221 | 364 ft | 19 kts | 357° |
| 2026-05-05 02:27 | 38.78526 | -9.13260 | 361 ft | 17 kts | 311° |
| 2026-05-05 02:27 | 38.78523 | -9.13388 | 366 ft | 14 kts | 204° |
| 2026-05-05 02:28 | 38.78402 | -9.13448 | 364 ft | 40 kts | 202° |
| 2026-05-05 02:28 | 38.77863 | -9.13737 | 364 ft | 129 kts | 202° |
| 2026-05-05 02:28 | 38.76851 | -9.14273 | 763 ft | 167 kts | 202° |
| 2026-05-05 02:28 | 38.75763 | -9.14848 | 1726 ft | 172 kts | 202° |
| 2026-05-05 02:29 | 38.74593 | -9.15475 | 2184 ft | 194 kts | 204° |
| 2026-05-05 02:29 | 38.73279 | -9.16185 | 2580 ft | 217 kts | 201° |
| 2026-05-05 02:29 | 38.71796 | -9.16967 | 3048 ft | 243 kts | 202° |
| 2026-05-05 02:29 | 38.70158 | -9.17835 | 3624 ft | 265 kts | 202° |
| 2026-05-05 02:30 | 38.68443 | -9.18796 | 4564 ft | 271 kts | 209° |
| 2026-05-05 02:30 | 38.67009 | -9.20372 | 5566 ft | 275 kts | 234° |
| 2026-05-05 02:30 | 38.66220 | -9.22592 | 6557 ft | 278 kts | 259° |
| 2026-05-05 02:30 | 38.66263 | -9.25063 | 7485 ft | 282 kts | 285° |
| 2026-05-05 02:31 | 38.67162 | -9.27295 | 8404 ft | 287 kts | 311° |
| 2026-05-05 02:31 | 38.68762 | -9.28814 | 9283 ft | 292 kts | 338° |
| 2026-05-05 02:31 | 38.70763 | -9.29270 | 10129 ft | 296 kts | 5° |
| 2026-05-05 02:31 | 38.72850 | -9.28859 | 10697 ft | 314 kts | 11° |
| 2026-05-05 02:32 | 38.75085 | -9.28328 | 11035 ft | 339 kts | 11° |
| 2026-05-05 02:32 | 38.77486 | -9.27741 | 11342 ft | 361 kts | 10° |
| 2026-05-05 02:32 | 38.79996 | -9.27128 | 11969 ft | 371 kts | 9° |
| 2026-05-05 02:32 | 38.82541 | -9.26512 | 12745 ft | 375 kts | 9° |
| 2026-05-05 02:33 | 38.85120 | -9.25894 | 13542 ft | 378 kts | 9° |
| 2026-05-05 02:33 | 38.87723 | -9.25275 | 14310 ft | 382 kts | 9° |
| 2026-05-05 02:33 | 38.90355 | -9.24650 | 15045 ft | 386 kts | 9° |
| 2026-05-05 02:33 | 38.93008 | -9.24017 | 15757 ft | 390 kts | 9° |
| 2026-05-05 02:34 | 38.95688 | -9.23378 | 16442 ft | 393 kts | 9° |
| 2026-05-05 02:34 | 38.98391 | -9.22733 | 17114 ft | 397 kts | 8° |
| 2026-05-05 02:34 | 39.01119 | -9.22083 | 17756 ft | 401 kts | 8° |
| 2026-05-05 02:34 | 39.03878 | -9.21430 | 18378 ft | 404 kts | 8° |
| 2026-05-05 02:35 | 39.06652 | -9.20770 | 19001 ft | 407 kts | 8° |
| 2026-05-05 02:35 | 39.09454 | -9.20101 | 19603 ft | 410 kts | 8° |
| 2026-05-05 02:35 | 39.12272 | -9.19425 | 20177 ft | 414 kts | 8° |
| 2026-05-05 02:35 | 39.15117 | -9.18744 | 20726 ft | 418 kts | 8° |
| 2026-05-05 02:36 | 39.17986 | -9.18057 | 21267 ft | 421 kts | 8° |
| 2026-05-05 02:36 | 39.20878 | -9.17366 | 21791 ft | 424 kts | 8° |
| 2026-05-05 02:36 | 39.23790 | -9.16666 | 22137 ft | 427 kts | 8° |
| 2026-05-05 02:36 | 39.26722 | -9.15958 | 22222 ft | 434 kts | 8° |
| 2026-05-05 02:37 | 39.29704 | -9.15240 | 22231 ft | 447 kts | 8° |
| 2026-05-05 02:37 | 39.32782 | -9.14501 | 22233 ft | 451 kts | 8° |
| 2026-05-05 02:37 | 39.35874 | -9.13758 | 22233 ft | 452 kts | 8° |
| 2026-05-05 02:37 | 39.38971 | -9.13009 | 22231 ft | 453 kts | 9° |
| 2026-05-05 02:38 | 39.42066 | -9.12257 | 22224 ft | 452 kts | 8° |
| 2026-05-05 02:38 | 39.45167 | -9.11507 | 22240 ft | 452 kts | 8° |
| 2026-05-05 02:38 | 39.48266 | -9.10762 | 22238 ft | 453 kts | 8° |
| 2026-05-05 02:38 | 39.51366 | -9.10018 | 22238 ft | 453 kts | 8° |
| 2026-05-05 02:39 | 39.54465 | -9.09270 | 22236 ft | 453 kts | 8° |
| 2026-05-05 02:39 | 39.57566 | -9.08515 | 22236 ft | 453 kts | 8° |
| 2026-05-05 02:39 | 39.60663 | -9.07759 | 22236 ft | 453 kts | 8° |
| 2026-05-05 02:39 | 39.63761 | -9.07006 | 22234 ft | 453 kts | 8° |
| 2026-05-05 02:40 | 39.66861 | -9.06256 | 22235 ft | 452 kts | 8° |
| 2026-05-05 02:40 | 39.69958 | -9.05512 | 22235 ft | 452 kts | 8° |
| 2026-05-05 02:40 | 39.73054 | -9.04767 | 22237 ft | 453 kts | 8° |
| 2026-05-05 02:40 | 39.76149 | -9.04012 | 22237 ft | 453 kts | 9° |
| 2026-05-05 02:41 | 39.79245 | -9.03247 | 22237 ft | 453 kts | 9° |
| 2026-05-05 02:41 | 39.82339 | -9.02483 | 22239 ft | 453 kts | 8° |
| 2026-05-05 02:41 | 39.85442 | -9.01722 | 22239 ft | 454 kts | 8° |
| 2026-05-05 02:41 | 39.88502 | -9.00974 | 22244 ft | 453 kts | 8° |
| 2026-05-05 02:42 | 39.91603 | -9.00218 | 22246 ft | 453 kts | 8° |
| 2026-05-05 02:42 | 39.94685 | -8.99467 | 22248 ft | 453 kts | 8° |
| 2026-05-05 02:42 | 39.97789 | -8.98709 | 22250 ft | 453 kts | 8° |
| 2026-05-05 02:42 | 40.00886 | -8.97952 | 22250 ft | 453 kts | 8° |
| 2026-05-05 02:43 | 40.03992 | -8.97190 | 22245 ft | 454 kts | 8° |
| 2026-05-05 02:43 | 40.07091 | -8.96427 | 22241 ft | 454 kts | 8° |
| 2026-05-05 02:43 | 40.10193 | -8.95661 | 22239 ft | 454 kts | 8° |
| 2026-05-05 02:43 | 40.13297 | -8.94896 | 22236 ft | 454 kts | 8° |
| 2026-05-05 02:44 | 40.16400 | -8.94131 | 22236 ft | 454 kts | 8° |
| 2026-05-05 02:44 | 40.19506 | -8.93366 | 22236 ft | 454 kts | 8° |
| 2026-05-05 02:44 | 40.22606 | -8.92599 | 22235 ft | 454 kts | 8° |
| 2026-05-05 02:44 | 40.25676 | -8.91837 | 22234 ft | 454 kts | 8° |
| 2026-05-05 02:45 | 40.28779 | -8.91069 | 22235 ft | 454 kts | 8° |
| 2026-05-05 02:45 | 40.31881 | -8.90301 | 22235 ft | 454 kts | 8° |
| 2026-05-05 02:45 | 40.34986 | -8.89532 | 22236 ft | 454 kts | 8° |
| 2026-05-05 02:45 | 40.38089 | -8.88761 | 22234 ft | 454 kts | 8° |
| 2026-05-05 02:46 | 40.41186 | -8.87989 | 22225 ft | 454 kts | 8° |
| 2026-05-05 02:46 | 40.44288 | -8.87216 | 21824 ft | 451 kts | 8° |
| 2026-05-05 02:46 | 40.47366 | -8.86447 | 21573 ft | 450 kts | 8° |
| 2026-05-05 02:46 | 40.50438 | -8.85680 | 21323 ft | 448 kts | 8° |
| 2026-05-05 02:47 | 40.53499 | -8.84917 | 21066 ft | 446 kts | 8° |
| 2026-05-05 02:47 | 40.56545 | -8.84157 | 20820 ft | 445 kts | 8° |
| 2026-05-05 02:47 | 40.59576 | -8.83401 | 20570 ft | 443 kts | 8° |
| 2026-05-05 02:47 | 40.62609 | -8.82644 | 20319 ft | 442 kts | 8° |
| 2026-05-05 02:48 | 40.65624 | -8.81890 | 20068 ft | 440 kts | 8° |
| 2026-05-05 02:48 | 40.68626 | -8.81139 | 19820 ft | 439 kts | 8° |
| 2026-05-05 02:48 | 40.71620 | -8.80389 | 19570 ft | 437 kts | 8° |
| 2026-05-05 02:48 | 40.74609 | -8.79640 | 19314 ft | 436 kts | 8° |
| 2026-05-05 02:49 | 40.77585 | -8.78892 | 19069 ft | 435 kts | 8° |
| 2026-05-05 02:49 | 40.80550 | -8.78146 | 18815 ft | 433 kts | 8° |
| 2026-05-05 02:49 | 40.83505 | -8.77399 | 18568 ft | 431 kts | 8° |
| 2026-05-05 02:49 | 40.86409 | -8.76665 | 18179 ft | 429 kts | 8° |
| 2026-05-05 02:50 | 40.89324 | -8.75927 | 17571 ft | 425 kts | 8° |
| 2026-05-05 02:50 | 40.92220 | -8.75193 | 16993 ft | 422 kts | 8° |
| 2026-05-05 02:50 | 40.95099 | -8.74578 | 16431 ft | 416 kts | 2° |
| 2026-05-05 02:50 | 40.97967 | -8.74615 | 15847 ft | 409 kts | 351° |
| 2026-05-05 02:51 | 41.00752 | -8.75266 | 15241 ft | 404 kts | 345° |
| 2026-05-05 02:51 | 41.03492 | -8.76000 | 14623 ft | 401 kts | 345° |
| 2026-05-05 02:51 | 41.06218 | -8.76722 | 13986 ft | 398 kts | 346° |
| 2026-05-05 02:51 | 41.08923 | -8.77431 | 13336 ft | 394 kts | 346° |
| 2026-05-05 02:52 | 41.11601 | -8.78132 | 12643 ft | 392 kts | 346° |
| 2026-05-05 02:52 | 41.14269 | -8.78834 | 11934 ft | 389 kts | 346° |
| 2026-05-05 02:52 | 41.16919 | -8.79530 | 11258 ft | 386 kts | 346° |
| 2026-05-05 02:52 | 41.19536 | -8.80221 | 10995 ft | 383 kts | 346° |
| 2026-05-05 02:53 | 41.22140 | -8.80915 | 10745 ft | 381 kts | 346° |
| 2026-05-05 02:53 | 41.24740 | -8.81609 | 10495 ft | 381 kts | 346° |
| 2026-05-05 02:53 | 41.27336 | -8.82302 | 10244 ft | 379 kts | 346° |
| 2026-05-05 02:53 | 41.29886 | -8.82979 | 10088 ft | 378 kts | 346° |
| 2026-05-05 02:54 | 41.32463 | -8.83663 | 9963 ft | 378 kts | 346° |
| 2026-05-05 02:54 | 41.35042 | -8.84347 | 9838 ft | 378 kts | 346° |
| 2026-05-05 02:54 | 41.37619 | -8.85031 | 9531 ft | 378 kts | 347° |
| 2026-05-05 02:54 | 41.40194 | -8.85715 | 8696 ft | 377 kts | 347° |
| 2026-05-05 02:55 | 41.42749 | -8.86401 | 8076 ft | 370 kts | 347° |
| 2026-05-05 02:55 | 41.45276 | -8.87086 | 7241 ft | 370 kts | 348° |
| 2026-05-05 02:55 | 41.47782 | -8.87153 | 6816 ft | 350 kts | 12° |
| 2026-05-05 02:55 | 41.49851 | -8.85818 | 6596 ft | 319 kts | 42° |
| 2026-05-05 02:56 | 41.51039 | -8.83531 | 6371 ft | 290 kts | 70° |
| 2026-05-05 02:56 | 41.51541 | -8.80957 | 5642 ft | 285 kts | 86° |
| 2026-05-05 02:56 | 41.51338 | -8.78378 | 4941 ft | 278 kts | 110° |
| 2026-05-05 02:56 | 41.50399 | -8.76205 | 4485 ft | 263 kts | 133° |
| 2026-05-05 02:57 | 41.49023 | -8.74772 | 4219 ft | 242 kts | 154° |
| 2026-05-05 02:57 | 41.47482 | -8.74091 | 3960 ft | 228 kts | 170° |
| 2026-05-05 02:57 | 41.45993 | -8.73703 | 3704 ft | 207 kts | 169° |
| 2026-05-05 02:57 | 41.44658 | -8.73350 | 3478 ft | 184 kts | 169° |
| 2026-05-05 02:58 | 41.43469 | -8.73036 | 3266 ft | 165 kts | 169° |
| 2026-05-05 02:58 | 41.42382 | -8.72750 | 3067 ft | 154 kts | 169° |
| 2026-05-05 02:58 | 41.41382 | -8.72486 | 2907 ft | 144 kts | 169° |
| 2026-05-05 02:58 | 41.40395 | -8.72226 | 2726 ft | 141 kts | 169° |
| 2026-05-05 02:59 | 41.39452 | -8.71977 | 2559 ft | 139 kts | 169° |
| 2026-05-05 02:59 | 41.38502 | -8.71726 | 2396 ft | 138 kts | 168° |
| 2026-05-05 02:59 | 41.37563 | -8.71478 | 2228 ft | 137 kts | 169° |
| 2026-05-05 02:59 | 41.36627 | -8.71232 | 2065 ft | 137 kts | 168° |
| 2026-05-05 03:00 | 41.35696 | -8.70987 | 1898 ft | 136 kts | 168° |
| 2026-05-05 03:00 | 41.34772 | -8.70745 | 1740 ft | 135 kts | 168° |
| 2026-05-05 03:00 | 41.33851 | -8.70502 | 1579 ft | 134 kts | 168° |
| 2026-05-05 03:00 | 41.32937 | -8.70262 | 1419 ft | 133 kts | 168° |
| 2026-05-05 03:01 | 41.32028 | -8.70023 | 1258 ft | 133 kts | 168° |
| 2026-05-05 03:01 | 41.31121 | -8.69784 | 1098 ft | 132 kts | 168° |
| 2026-05-05 03:01 | 41.30219 | -8.69547 | 933 ft | 132 kts | 168° |
| 2026-05-05 03:01 | 41.29318 | -8.69309 | 768 ft | 132 kts | 168° |
| 2026-05-05 03:02 | 41.28418 | -8.69072 | 617 ft | 132 kts | 168° |
| 2026-05-05 03:02 | 41.27533 | -8.68840 | 429 ft | 131 kts | 168° |
| 2026-05-05 03:02 | 41.26626 | -8.68602 | 262 ft | 131 kts | 168° |
| 2026-05-05 03:02 | 41.25751 | -8.68369 | 174 ft | 128 kts | 168° |
| 2026-05-05 03:03 | 41.24987 | -8.68172 | 190 ft | 91 kts | 168° |
| 2026-05-05 03:03 | 41.24532 | -8.68053 | 211 ft | 48 kts | 168° |
| 2026-05-05 03:03 | 41.24206 | -8.67964 | 214 ft | 46 kts | 169° |
| 2026-05-05 03:03 | 41.23930 | -8.67896 | 222 ft | 31 kts | 168° |
| 2026-05-05 03:04 | 41.23725 | -8.67840 | 228 ft | 25 kts | 168° |
| 2026-05-05 03:04 | 41.23594 | -8.67761 | 233 ft | 17 kts | 110° |
| 2026-05-05 03:04 | 41.23614 | -8.67601 | 233 ft | 19 kts | 78° |
| 2026-05-05 03:04 | 41.23630 | -8.67438 | 238 ft | 15 kts | 98° |
| 2026-05-05 03:05 | 41.23618 | -8.67356 | 241 ft | 5 kts | 127° |
| 2026-05-05 03:05 | 41.23583 | -8.67341 | 241 ft | 5 kts | 153° |
| 2026-05-05 03:05 | 41.23569 | -8.67304 | 243 ft | 6 kts | 109° |
| 2026-05-05 03:05 | 41.23562 | -8.67277 | 244 ft | 6 kts | 109° |
| 2026-05-05 03:06 | 41.23552 | -8.67240 | 245 ft | 3 kts | 109° |
| 2026-05-05 03:06 | 41.23550 | -8.67232 | 245 ft | 0 kts | 109° |